Time;durP1;ratioP1;P1;durP2;ratioP2;P2;SDS_P1;SDS_P2;PMS_P1;PMS_P2;Temp;Humidity;BMP_temperature;BMP_pressure;BME280_temperature;BME280_humidity;BME280_pressure;Samples;Min_cycle;Max_cycle;Signal;HPM_P1;HPM_P2
2022/03/02 00:01:00;;;;;;;9.75;7.30;;;12.90;70.30;;;;;;5068388;28;20022;-75
2022/03/02 00:03:26;;;;;;;10.90;8.48;;;12.90;70.30;;;;;;5058994;28;20459;-75
2022/03/02 00:05:51;;;;;;;10.48;8.13;;;12.90;70.10;;;;;;5058986;28;20474;-76
2022/03/02 00:08:17;;;;;;;14.43;8.30;;;12.90;69.90;;;;;;5065875;28;20032;-75
2022/03/02 00:10:43;;;;;;;12.50;7.68;;;12.80;69.90;;;;;;5056908;28;20029;-76
2022/03/02 00:13:09;;;;;;;10.38;7.47;;;12.80;69.80;;;;;;5056834;28;20029;-75
2022/03/02 00:15:35;;;;;;;11.48;7.90;;;12.80;70.00;;;;;;5056474;28;20056;-76
2022/03/02 00:18:01;;;;;;;13.30;7.50;;;12.80;69.40;;;;;;5057418;28;20025;-76
2022/03/02 00:20:27;;;;;;;11.45;7.65;;;12.80;69.60;;;;;;5097041;28;20497;-76
2022/03/02 00:22:52;;;;;;;11.05;7.50;;;12.80;69.50;;;;;;5085753;28;20017;-75
2022/03/02 00:25:19;;;;;;;13.55;7.75;;;12.80;68.90;;;;;;5056608;28;20025;-76
2022/03/02 00:27:45;;;;;;;14.15;7.78;;;12.80;69.30;;;;;;5056592;28;20025;-76
2022/03/02 00:30:11;;;;;;;9.70;7.13;;;12.80;69.30;;;;;;5044309;28;20035;-76
2022/03/02 00:32:38;;;;;;;11.73;7.55;;;12.80;68.90;;;;;;5076813;28;20088;-75
2022/03/02 00:35:04;;;;;;;13.13;7.22;;;12.80;68.90;;;;;;5064367;28;20063;-76
2022/03/02 00:37:30;;;;;;;11.40;7.55;;;12.80;69.00;;;;;;5038996;28;20046;-76
2022/03/02 00:39:56;;;;;;;10.73;7.47;;;12.90;69.10;;;;;;5058442;28;20092;-75
2022/03/02 00:42:22;;;;;;;8.00;6.40;;;12.80;68.60;;;;;;5076349;28;20016;-76
2022/03/02 00:44:48;;;;;;;12.05;7.20;;;12.80;68.50;;;;;;5047881;28;20062;-75
2022/03/02 00:47:14;;;;;;;10.75;7.32;;;12.70;68.30;;;;;;5038143;28;20029;-75
2022/03/02 00:49:40;;;;;;;10.65;6.78;;;12.70;68.50;;;;;;5056049;28;20040;-75
2022/03/02 00:52:09;;;;;;;10.18;6.78;;;12.80;68.40;;;;;;5056025;28;20095;-76
2022/03/02 00:54:35;;;;;;;12.50;7.10;;;12.80;68.30;;;;;;5054756;28;20029;-75
2022/03/02 00:57:00;;;;;;;10.65;7.07;;;12.80;68.00;;;;;;5055938;28;20025;-75
2022/03/02 00:59:26;;;;;;;10.50;7.22;;;12.70;67.90;;;;;;5038053;28;20090;-76
2022/03/02 01:01:52;;;;;;;9.25;5.97;;;12.60;67.90;;;;;;5047911;28;20112;-76
2022/03/02 01:04:17;;;;;;;9.30;6.90;;;12.70;68.80;;;;;;5057564;28;20032;-75
2022/03/02 01:06:43;;;;;;;9.93;6.18;;;12.70;67.80;;;;;;5058108;28;20092;-76
2022/03/02 01:09:09;;;;;;;9.68;6.70;;;12.70;67.80;;;;;;5057806;28;20029;-76
2022/03/02 01:11:35;;;;;;;9.35;6.47;;;12.80;68.50;;;;;;5049701;28;20033;-76
2022/03/02 01:14:01;;;;;;;8.68;6.38;;;12.80;67.30;;;;;;5055848;28;20170;-76
2022/03/02 01:16:27;;;;;;;8.98;6.32;;;12.80;67.50;;;;;;5055661;28;20052;-76
2022/03/02 01:18:53;;;;;;;10.35;6.80;;;12.80;68.10;;;;;;5070696;28;20016;-76
2022/03/02 01:21:18;;;;;;;12.20;6.60;;;12.80;67.50;;;;;;5079198;28;20024;-76
2022/03/02 01:23:44;;;;;;;10.15;6.50;;;12.90;68.20;;;;;;5070791;28;20028;-76
2022/03/02 01:26:09;;;;;;;9.55;6.10;;;12.90;68.40;;;;;;5055031;28;20025;-76
2022/03/02 01:28:35;;;;;;;9.93;6.35;;;12.90;68.60;;;;;;5055368;28;20032;-76
2022/03/02 01:31:01;;;;;;;11.05;5.85;;;12.90;68.60;;;;;;5055472;28;20061;-76
2022/03/02 01:33:27;;;;;;;8.45;5.53;;;12.90;68.90;;;;;;5073391;28;20051;-75
2022/03/02 01:35:53;;;;;;;9.90;6.50;;;12.80;68.60;;;;;;5075524;28;20036;-76
2022/03/02 01:38:18;;;;;;;7.72;6.22;;;12.80;68.90;;;;;;5056726;28;20032;-76
2022/03/02 01:40:44;;;;;;;11.13;6.53;;;12.80;69.00;;;;;;5055256;28;20033;-75
2022/03/02 01:43:12;;;;;;;9.88;6.45;;;12.80;68.60;;;;;;5037578;28;20075;-76
2022/03/02 01:45:38;;;;;;;12.93;8.18;;;12.80;68.50;;;;;;5056473;28;20079;-76
2022/03/02 01:48:05;;;;;;;12.35;8.00;;;12.80;67.90;;;;;;5057217;28;20024;-76
2022/03/02 01:50:32;;;;;;;11.90;7.53;;;12.80;67.90;;;;;;5073175;28;20056;-76
2022/03/02 01:52:59;;;;;;;10.45;7.80;;;12.80;67.80;;;;;;5053960;28;20051;-75
2022/03/02 01:55:25;;;;;;;15.23;8.73;;;12.70;67.20;;;;;;5055043;28;20089;-76
2022/03/02 01:57:51;;;;;;;12.95;8.48;;;12.80;68.40;;;;;;5053901;28;20491;-75
2022/03/02 02:00:20;;;;;;;16.38;9.93;;;12.70;68.20;;;;;;5071157;28;20062;-75
2022/03/02 02:02:47;;;;;;;19.38;11.07;;;12.70;68.50;;;;;;5074736;28;20104;-76
2022/03/02 02:05:13;;;;;;;18.38;9.68;;;12.70;68.30;;;;;;5069950;28;20111;-76
2022/03/02 02:07:39;;;;;;;11.48;8.27;;;12.70;68.50;;;;;;5037127;28;20051;-76
2022/03/02 02:10:08;;;;;;;14.27;7.97;;;12.60;68.90;;;;;;5055098;28;20104;-75
2022/03/02 02:12:35;;;;;;;11.95;6.85;;;12.60;69.00;;;;;;5054818;28;20078;-75
2022/03/02 02:15:02;;;;;;;9.60;6.18;;;12.60;69.30;;;;;;5054624;28;20045;-75
2022/03/02 02:17:27;;;;;;;10.15;6.55;;;12.60;69.20;;;;;;5054842;28;20021;-76
2022/03/02 02:19:53;;;;;;;10.85;7.35;;;12.60;69.00;;;;;;5068305;28;20028;-75
2022/03/02 02:22:19;;;;;;;9.18;6.15;;;12.60;69.20;;;;;;5065414;28;20032;-76
2022/03/02 02:24:45;;;;;;;10.18;7.10;;;12.60;69.30;;;;;;5060855;28;20035;-76
2022/03/02 02:27:12;;;;;;;10.45;6.40;;;12.60;69.20;;;;;;5064542;28;20060;-75
2022/03/02 02:29:39;;;;;;;9.70;6.63;;;12.70;69.10;;;;;;5054811;28;20033;-76
2022/03/02 02:32:05;;;;;;;9.73;6.78;;;12.60;68.80;;;;;;5054923;28;20033;-76
2022/03/02 02:34:31;;;;;;;12.18;6.40;;;12.60;69.50;;;;;;5054599;28;20059;-75
2022/03/02 02:36:58;;;;;;;10.18;6.68;;;12.60;69.40;;;;;;5056276;28;20053;-75
2022/03/02 02:39:25;;;;;;;10.82;6.88;;;12.70;69.10;;;;;;5040745;28;20029;-75
2022/03/02 02:41:51;;;;;;;12.23;6.82;;;12.70;69.10;;;;;;5058582;28;20033;-75
2022/03/02 02:44:16;;;;;;;11.00;7.07;;;12.50;69.10;;;;;;5040847;28;20127;-76
2022/03/02 02:46:43;;;;;;;10.02;7.07;;;12.50;68.80;;;;;;5058530;28;20021;-77
2022/03/02 02:49:09;;;;;;;10.93;7.50;;;12.50;69.10;;;;;;5058499;28;20036;-75
2022/03/02 02:51:35;;;;;;;12.25;8.13;;;12.50;69.00;;;;;;5040680;28;20029;-76
2022/03/02 02:54:02;;;;;;;10.20;7.63;;;12.40;68.20;;;;;;5058626;28;20033;-75
2022/03/02 02:56:27;;;;;;;12.85;7.68;;;12.40;67.60;;;;;;5058050;28;20031;-76
2022/03/02 02:58:53;;;;;;;14.65;8.45;;;12.30;67.80;;;;;;5058311;28;20032;-76
2022/03/02 03:01:19;;;;;;;13.48;7.90;;;12.30;67.30;;;;;;5057358;28;20063;-75
2022/03/02 03:03:46;;;;;;;11.35;7.97;;;12.20;67.40;;;;;;5072150;28;20028;-76
2022/03/02 03:06:12;;;;;;;12.27;7.65;;;12.20;67.70;;;;;;5059501;28;20029;-76
2022/03/02 03:08:38;;;;;;;13.40;8.38;;;12.20;68.50;;;;;;5060073;28;20036;-75
2022/03/02 03:11:04;;;;;;;11.35;7.57;;;12.10;67.40;;;;;;5060057;28;20029;-75
2022/03/02 03:13:30;;;;;;;10.45;7.38;;;12.10;67.20;;;;;;5078113;28;20112;-76
2022/03/02 03:15:55;;;;;;;12.82;8.25;;;12.20;67.40;;;;;;5059627;28;20059;-76
2022/03/02 03:18:21;;;;;;;11.38;7.68;;;12.20;67.90;;;;;;5065707;28;20016;-76
2022/03/02 03:20:47;;;;;;;10.95;7.78;;;12.20;67.50;;;;;;5060011;28;20032;-75
2022/03/02 03:23:13;;;;;;;11.80;7.78;;;12.20;66.50;;;;;;5055258;28;20025;-76
2022/03/02 03:25:39;;;;;;;11.73;8.63;;;12.10;66.40;;;;;;5057914;28;20029;-76
2022/03/02 03:28:05;;;;;;;11.50;7.97;;;12.10;66.40;;;;;;5057643;28;20398;-76
2022/03/02 03:30:31;;;;;;;10.50;7.55;;;12.10;66.80;;;;;;5057855;28;20032;-76
2022/03/02 03:32:57;;;;;;;13.45;7.40;;;12.00;66.40;;;;;;5039499;28;20033;-76
2022/03/02 03:35:26;;;;;;;15.35;7.85;;;12.10;66.80;;;;;;5039802;28;20033;-76
2022/03/02 03:37:53;;;;;;;13.15;7.68;;;12.20;67.40;;;;;;5057668;28;20356;-76
2022/03/02 03:40:21;;;;;;;12.57;7.60;;;12.10;66.60;;;;;;5057724;28;20529;-76
2022/03/02 03:42:47;;;;;;;12.13;7.82;;;12.00;65.60;;;;;;5057624;28;20025;-75
2022/03/02 03:45:14;;;;;;;10.07;7.20;;;12.00;65.60;;;;;;5066000;28;20097;-76
2022/03/02 03:47:41;;;;;;;13.93;7.43;;;12.00;65.50;;;;;;5077505;28;20075;-76
2022/03/02 03:50:08;;;;;;;10.50;7.57;;;11.90;64.60;;;;;;5077309;28;20556;-76
2022/03/02 03:52:34;;;;;;;11.48;7.22;;;11.90;65.20;;;;;;5077498;28;20095;-76
2022/03/02 03:55:00;;;;;;;12.18;7.47;;;11.90;64.90;;;;;;5049070;28;20056;-76
2022/03/02 03:57:26;;;;;;;13.38;6.65;;;11.80;64.30;;;;;;5039476;28;20025;-76
2022/03/02 03:59:52;;;;;;;11.00;6.95;;;11.80;64.30;;;;;;5039318;28;20021;-76
2022/03/02 04:02:17;;;;;;;15.57;7.30;;;11.80;63.50;;;;;;5057194;28;20919;-75
2022/03/02 04:04:43;;;;;;;10.80;6.70;;;11.80;63.70;;;;;;5039189;28;20032;-75
2022/03/02 04:07:09;;;;;;;11.65;6.70;;;11.80;63.30;;;;;;5056955;28;20017;-76
2022/03/02 04:09:34;;;;;;;16.00;7.35;;;11.90;63.30;;;;;;5039035;28;20029;-76
2022/03/02 04:12:00;;;;;;;9.95;7.03;;;11.80;63.10;;;;;;5038796;28;20025;-76
2022/03/02 04:14:26;;;;;;;10.15;6.97;;;11.80;62.80;;;;;;5038929;28;20032;-76
2022/03/02 04:16:51;;;;;;;13.38;7.60;;;11.70;63.00;;;;;;5056889;28;20025;-75
2022/03/02 04:19:18;;;;;;;11.80;7.05;;;11.70;63.20;;;;;;5078919;28;20119;-76
2022/03/02 04:21:44;;;;;;;12.73;7.32;;;11.80;63.60;;;;;;5082438;28;20060;-76
2022/03/02 04:24:10;;;;;;;12.15;7.55;;;11.70;63.00;;;;;;5056840;28;20029;-76
2022/03/02 04:26:35;;;;;;;13.27;7.05;;;11.80;63.10;;;;;;5038412;28;20033;-76
2022/03/02 04:29:01;;;;;;;11.82;7.55;;;11.80;62.70;;;;;;5056584;28;20032;-76
2022/03/02 04:31:27;;;;;;;10.18;6.72;;;11.70;63.00;;;;;;5056723;28;20033;-75
2022/03/02 04:33:52;;;;;;;11.88;7.15;;;11.70;62.60;;;;;;5057957;28;20029;-76
2022/03/02 04:36:18;;;;;;;13.88;7.25;;;11.70;62.90;;;;;;5076597;28;20384;-75
2022/03/02 04:38:44;;;;;;;11.82;6.75;;;11.70;63.70;;;;;;5058745;28;20470;-76
2022/03/02 04:41:10;;;;;;;11.18;7.53;;;11.60;62.80;;;;;;5051722;28;20463;-76
2022/03/02 04:43:36;;;;;;;9.70;7.00;;;11.70;63.30;;;;;;5038203;28;20033;-76
2022/03/02 04:46:02;;;;;;;11.50;7.95;;;11.60;62.90;;;;;;5038721;28;20037;-75
2022/03/02 04:48:28;;;;;;;14.48;9.25;;;11.80;63.40;;;;;;5056423;28;20116;-76
2022/03/02 04:50:53;;;;;;;13.32;8.43;;;11.80;62.70;;;;;;5056173;28;20025;-75
2022/03/02 04:53:23;;;;;;;12.60;7.75;;;11.80;63.00;;;;;;5056353;28;20025;-75
2022/03/02 04:55:49;;;;;;;13.07;7.88;;;11.80;62.40;;;;;;5056082;28;20361;-76
2022/03/02 04:58:15;;;;;;;13.60;7.75;;;11.80;62.60;;;;;;5056175;28;20055;-76
2022/03/02 05:00:40;;;;;;;12.45;8.27;;;11.80;62.70;;;;;;5054959;28;20040;-76
2022/03/02 05:03:07;;;;;;;15.75;8.63;;;11.80;62.60;;;;;;5056110;28;20024;-76
2022/03/02 05:05:36;;;;;;;11.88;8.30;;;11.80;62.90;;;;;;5056085;28;20033;-75
2022/03/02 05:08:02;;;;;;;12.23;8.67;;;11.80;63.10;;;;;;5056152;28;20057;-76
2022/03/02 05:10:29;;;;;;;14.20;8.75;;;11.70;63.30;;;;;;5056097;28;20024;-76
2022/03/02 05:12:56;;;;;;;13.25;8.88;;;11.70;63.60;;;;;;5037923;28;20044;-76
2022/03/02 05:15:22;;;;;;;15.65;9.07;;;11.70;64.00;;;;;;5055760;28;20041;-75
2022/03/02 05:17:49;;;;;;;13.27;9.20;;;11.50;64.20;;;;;;5055678;28;20048;-75
2022/03/02 05:20:16;;;;;;;12.65;8.88;;;11.50;64.70;;;;;;5093576;28;20509;-75
2022/03/02 05:22:42;;;;;;;14.63;8.90;;;11.50;64.80;;;;;;5078631;28;20672;-75
2022/03/02 05:25:09;;;;;;;10.25;6.90;;;11.60;65.10;;;;;;5037702;28;20040;-76
2022/03/02 05:27:36;;;;;;;16.25;9.32;;;11.40;65.30;;;;;;5037628;28;20124;-76
2022/03/02 05:30:03;;;;;;;19.05;9.27;;;11.40;66.00;;;;;;5054273;28;20025;-76
2022/03/02 05:32:29;;;;;;;13.18;8.63;;;11.40;65.90;;;;;;5055602;28;20025;-76
2022/03/02 05:34:54;;;;;;;17.90;10.35;;;11.40;65.90;;;;;;5037206;28;20036;-76
2022/03/02 05:37:20;;;;;;;14.57;9.18;;;11.50;65.80;;;;;;5055326;28;20752;-76
2022/03/02 05:39:46;;;;;;;13.95;8.90;;;11.50;65.90;;;;;;5055699;28;20055;-76
2022/03/02 05:42:11;;;;;;;13.55;9.05;;;11.50;66.10;;;;;;5055371;28;20025;-75
2022/03/02 05:44:37;;;;;;;16.70;9.70;;;11.50;65.90;;;;;;5055225;28;20025;-75
2022/03/02 05:47:03;;;;;;;14.60;9.18;;;11.40;65.80;;;;;;5053976;28;20028;-78
2022/03/02 05:49:29;;;;;;;15.50;9.45;;;11.40;65.90;;;;;;5055302;28;20024;-76
2022/03/02 05:51:55;;;;;;;18.35;11.27;;;11.40;65.90;;;;;;5037018;28;20119;-76
